Terminal Aerodrome Forecast
Issued by NWS

Home | Current Version | Previous Version | Text Only | Print | Product List | Glossary On
Versions: 1 2 3 4 5 6 7 8 9 10 11 12 13 14
224
FTUS45 KABQ 220521
TAFSAF
TAF
KSAF 220521Z 2206/2306 14010KT P6SM BKN250
     FM221000 36008KT P6SM SCT250
      TEMPO 2214/2218 36012G20KT
     FM222100 32008KT P6SM SKC
     FM230100 02005KT P6SM SKC=

USA.gov is the U.S. government's official web portal to all federal, state and local government web resources and services.